createdAt,value
2022-09-14T00:02:24.077Z,14.43
2022-09-14T00:06:26.265Z,13.57
2022-09-14T00:10:27.549Z,11.47
2022-09-14T00:14:28.719Z,12.90
2022-09-14T00:18:30.229Z,12.53
2022-09-14T00:22:31.259Z,12.10
2022-09-14T00:26:33.069Z,13.87
2022-09-14T00:30:34.300Z,12.27
2022-09-14T00:34:35.455Z,12.30
2022-09-14T00:38:37.257Z,13.23
2022-09-14T00:42:38.481Z,19.13
2022-09-14T00:46:48.593Z,14.93
2022-09-14T00:50:50.075Z,27.87
2022-09-14T00:54:54.770Z,39.17
2022-09-14T00:58:59.093Z,45.40
2022-09-14T01:03:01.368Z,59.00
2022-09-14T01:07:06.179Z,59.07
2022-09-14T01:11:14.119Z,53.63
2022-09-14T01:15:19.548Z,55.17
2022-09-14T01:19:27.439Z,54.40
2022-09-14T01:23:57.287Z,52.97
2022-09-14T01:28:01.326Z,46.40
2022-09-14T01:32:09.190Z,43.77
2022-09-14T01:36:12.809Z,45.60
2022-09-14T01:40:34.439Z,40.87
2022-09-14T01:44:38.144Z,37.30
2022-09-14T01:48:45.930Z,34.43
2022-09-14T01:52:53.714Z,28.77
2022-09-14T01:56:58.630Z,23.63
2022-09-14T02:01:03.122Z,23.10
2022-09-14T02:05:14.693Z,26.07
2022-09-14T02:09:19.123Z,25.40
2022-09-14T02:13:20.458Z,26.60
2022-09-14T02:17:21.893Z,26.10
2022-09-14T02:21:26.547Z,25.23
2022-09-14T02:25:27.872Z,24.60
2022-09-14T02:29:29.043Z,26.17
2022-09-14T02:33:49.387Z,23.90
2022-09-14T02:38:20.386Z,24.67
2022-09-14T02:42:45.154Z,22.77
2022-09-14T02:46:58.674Z,23.00
2022-09-14T02:51:06.533Z,21.20
2022-09-14T02:55:11.243Z,23.07
2022-09-14T02:59:12.195Z,23.50
2022-09-14T03:03:15.788Z,22.73
2022-09-14T03:07:16.834Z,22.93
2022-09-14T03:11:18.104Z,22.83
2022-09-14T03:15:19.820Z,29.20
2022-09-14T03:19:21.247Z,39.63
2022-09-14T03:23:22.376Z,54.67
2022-09-14T03:27:23.429Z,55.33
2022-09-14T03:31:25.797Z,59.00
2022-09-14T03:35:31.035Z,54.97
2022-09-14T03:39:32.344Z,101.97
2022-09-14T03:43:33.669Z,65.30
2022-09-14T03:47:34.807Z,98.03
2022-09-14T03:51:36.042Z,53.20
2022-09-14T03:55:39.711Z,92.47
2022-09-14T03:59:43.723Z,89.73
2022-09-14T04:03:44.384Z,102.67
2022-09-14T04:07:45.508Z,63.67
2022-09-14T04:11:47.157Z,75.53
2022-09-14T04:15:59.100Z,108.20
2022-09-14T04:20:00.344Z,131.93
2022-09-14T04:24:17.533Z,89.67
2022-09-14T04:28:21.587Z,102.13
2022-09-14T04:32:09.236Z,126.47
2022-09-14T04:36:13.036Z,81.43
2022-09-14T04:40:14.448Z,81.50
2022-09-14T04:44:15.884Z,132.27
2022-09-14T04:48:17.544Z,99.67
2022-09-14T04:52:19.308Z,98.00
2022-09-14T04:56:21.970Z,99.83
2022-09-14T05:00:23.199Z,108.33
2022-09-14T05:04:24.691Z,88.43
2022-09-14T05:08:25.868Z,87.37
2022-09-14T05:12:27.241Z,60.40
2022-09-14T05:16:34.011Z,39.07
2022-09-14T05:20:35.062Z,48.10
2022-09-14T05:24:36.061Z,39.73
2022-09-14T05:28:37.355Z,35.33
2022-09-14T05:32:38.399Z,25.67
2022-09-14T05:36:39.914Z,21.77
2022-09-14T05:40:41.515Z,23.53
2022-09-14T05:44:42.604Z,35.33
2022-09-14T05:48:43.709Z,22.60
2022-09-14T05:52:44.802Z,26.80
2022-09-14T05:56:45.912Z,20.47
2022-09-14T06:00:47.436Z,18.63
2022-09-14T06:04:48.706Z,22.50
2022-09-14T06:08:53.082Z,18.57
2022-09-14T06:12:55.584Z,39.23
2022-09-14T06:16:58.821Z,13.70
2022-09-14T06:21:00.362Z,14.67
2022-09-14T06:25:01.695Z,13.43
2022-09-14T06:29:03.547Z,22.80
2022-09-14T06:33:05.160Z,17.67
2022-09-14T06:37:06.327Z,12.47
2022-09-14T06:41:09.561Z,13.17
2022-09-14T06:45:10.561Z,10.43
2022-09-14T06:49:19.496Z,10.93
2022-09-14T06:53:20.624Z,9.77
2022-09-14T06:57:21.930Z,13.73
2022-09-14T07:01:25.069Z,14.50
2022-09-14T07:05:26.264Z,13.57
2022-09-14T07:09:27.688Z,13.73
2022-09-14T07:13:29.760Z,19.40
2022-09-14T07:17:30.805Z,12.33
2022-09-14T07:21:33.145Z,12.17
2022-09-14T07:25:34.494Z,8.97
2022-09-14T07:29:35.974Z,10.63
2022-09-14T07:33:37.027Z,8.87
2022-09-14T07:37:38.300Z,11.33
2022-09-14T07:41:40.051Z,10.30
2022-09-14T07:45:41.125Z,11.37
2022-09-14T07:49:42.401Z,9.67
2022-09-14T07:53:43.591Z,11.97
2022-09-14T07:57:56.250Z,12.90
2022-09-14T08:01:49.402Z,12.90
2022-09-14T08:05:59.573Z,16.77
2022-09-14T08:10:01.704Z,16.20
2022-09-14T08:14:06.009Z,16.13
2022-09-14T08:18:07.125Z,16.90
2022-09-14T08:22:08.379Z,17.17
2022-09-14T08:26:15.868Z,19.47
2022-09-14T08:30:17.211Z,23.40
2022-09-14T08:34:19.726Z,39.87
2022-09-14T08:38:20.887Z,35.07
2022-09-14T08:42:24.513Z,34.03
2022-09-14T08:46:35.644Z,35.23
2022-09-14T08:50:38.951Z,33.83
2022-09-14T08:54:40.284Z,52.77
2022-09-14T08:58:48.626Z,53.67
2022-09-14T09:03:08.723Z,52.67
2022-09-14T09:07:33.521Z,43.73
2022-09-14T09:11:40.943Z,46.57
2022-09-14T09:15:54.890Z,39.30
2022-09-14T09:20:06.208Z,32.87
2022-09-14T09:24:17.372Z,29.77
2022-09-14T09:28:21.470Z,27.63
2022-09-14T09:32:24.421Z,30.33
2022-09-14T09:36:28.114Z,29.30
2022-09-14T09:40:35.787Z,32.07
2022-09-14T09:45:03.864Z,29.27
2022-09-14T09:49:17.867Z,29.87
2022-09-14T09:53:22.582Z,29.47
2022-09-14T09:57:30.436Z,25.53
2022-09-14T10:01:34.690Z,24.23
2022-09-14T10:05:36.157Z,22.07
2022-09-14T10:09:38.160Z,23.10
2022-09-14T10:13:40.428Z,25.43
2022-09-14T10:17:54.262Z,28.03
2022-09-14T10:22:01.752Z,28.43
2022-09-14T10:26:15.412Z,26.57
2022-09-14T10:30:22.478Z,26.23
2022-09-14T10:34:23.521Z,25.70
2022-09-14T10:38:46.671Z,24.83
2022-09-14T10:42:57.522Z,23.83
2022-09-14T10:47:31.428Z,25.30
2022-09-14T10:51:45.578Z,24.17
2022-09-14T10:55:50.905Z,22.50
2022-09-14T10:59:58.842Z,19.27
2022-09-14T11:04:29.472Z,18.57
2022-09-14T11:08:46.838Z,17.17
2022-09-14T11:13:04.105Z,17.60
2022-09-14T11:17:18.811Z,15.90
2022-09-14T11:21:38.986Z,16.30
2022-09-14T11:25:43.974Z,19.17
2022-09-14T11:29:57.816Z,17.27
2022-09-14T11:34:05.501Z,16.60
2022-09-14T11:38:10.485Z,18.63
2022-09-14T11:42:27.831Z,19.57
2022-09-14T11:46:42.024Z,22.63
2022-09-14T11:50:44.646Z,22.83
2022-09-14T11:54:47.124Z,22.23
2022-09-14T11:58:48.924Z,17.80
2022-09-14T12:03:18.435Z,15.60
2022-09-14T12:07:23.552Z,13.73
2022-09-14T12:11:29.008Z,9.50
2022-09-14T12:15:33.980Z,10.93
2022-09-14T12:19:35.178Z,10.47
2022-09-14T12:23:42.332Z,9.60
2022-09-14T12:27:47.969Z,8.00
2022-09-14T12:31:54.201Z,9.10
2022-09-14T12:35:55.564Z,6.57
2022-09-14T12:40:23.821Z,8.70
2022-09-14T12:44:37.556Z,6.30
2022-09-14T12:48:48.376Z,6.83
2022-09-14T12:53:10.019Z,7.73
2022-09-14T12:57:21.113Z,7.43
2022-09-14T13:01:29.182Z,7.50
2022-09-14T13:05:33.260Z,6.50
2022-09-14T13:09:35.699Z,6.70
2022-09-14T13:13:38.938Z,5.80
2022-09-14T13:18:02.282Z,6.93
2022-09-14T13:22:07.354Z,7.57
2022-09-14T13:26:17.913Z,7.63
2022-09-14T13:30:22.584Z,9.27
2022-09-14T13:34:30.471Z,8.97
2022-09-14T13:38:36.145Z,8.20
2022-09-14T13:42:37.645Z,9.23
2022-09-14T13:46:38.907Z,10.10
2022-09-14T13:50:43.307Z,7.83
2022-09-14T13:54:46.136Z,11.50
2022-09-14T13:58:50.338Z,7.40
2022-09-14T14:02:55.017Z,7.30
2022-09-14T14:07:18.383Z,9.57
2022-09-14T14:11:27.531Z,7.50
2022-09-14T14:19:40.242Z,7.80
2022-09-14T14:23:56.694Z,10.27
2022-09-14T14:27:47.653Z,9.40
2022-09-14T14:31:50.586Z,7.47
2022-09-14T14:35:54.888Z,8.73
2022-09-14T14:39:57.968Z,8.00
2022-09-14T14:43:59.694Z,6.47
2022-09-14T14:48:01.467Z,5.27
2022-09-14T14:52:02.656Z,5.10
2022-09-14T14:56:03.905Z,4.10
2022-09-14T15:00:09.456Z,3.80
2022-09-14T15:04:10.707Z,5.60
2022-09-14T15:08:13.170Z,4.90
2022-09-14T15:12:14.472Z,3.37
2022-09-14T15:16:16.729Z,5.87
2022-09-14T15:20:19.258Z,7.53
2022-09-14T15:24:20.643Z,7.23
2022-09-14T15:28:21.768Z,9.87
2022-09-14T15:32:22.933Z,11.50
2022-09-14T15:36:40.198Z,6.30
2022-09-14T15:40:41.372Z,7.27
2022-09-14T15:44:42.624Z,9.47
2022-09-14T15:48:44.071Z,5.87
2022-09-14T15:52:45.332Z,6.70
2022-09-14T15:56:52.352Z,8.50
2022-09-14T16:00:53.475Z,6.53
2022-09-14T16:04:55.082Z,7.37
2022-09-14T16:08:57.217Z,8.33
2022-09-14T16:12:58.416Z,8.73
2022-09-14T16:16:59.720Z,7.10
2022-09-14T16:21:10.479Z,9.57
2022-09-14T16:25:11.681Z,10.83
2022-09-14T16:29:15.526Z,15.43
2022-09-14T16:33:16.912Z,13.77
2022-09-14T16:37:18.011Z,21.17
2022-09-14T16:41:19.629Z,16.67
2022-09-14T16:45:20.840Z,13.70
2022-09-14T16:49:26.546Z,12.27
2022-09-14T16:53:24.971Z,13.27
2022-09-14T16:57:28.065Z,21.03
2022-09-14T17:01:31.724Z,15.40
2022-09-14T17:05:32.861Z,10.37
2022-09-14T17:09:34.008Z,23.67
2022-09-14T17:13:35.612Z,33.67
2022-09-14T17:17:36.647Z,2.83
2022-09-14T17:21:39.504Z,12.57
2022-09-14T17:25:40.583Z,6.50
2022-09-14T17:29:41.574Z,5.77
2022-09-14T17:33:42.857Z,6.57
2022-09-14T17:37:43.850Z,10.47
2022-09-14T17:41:45.030Z,7.53
2022-09-14T17:45:54.494Z,9.17
2022-09-14T17:49:55.695Z,10.63
2022-09-14T17:53:58.162Z,9.53
2022-09-14T17:57:59.707Z,13.93
2022-09-14T18:02:01.182Z,17.17
2022-09-14T18:06:04.038Z,13.37
2022-09-14T18:10:05.860Z,12.00
2022-09-14T18:14:07.161Z,17.70
2022-09-14T18:18:08.353Z,13.83
2022-09-14T18:22:09.566Z,15.10
2022-09-14T18:26:10.643Z,19.27
2022-09-14T18:30:12.607Z,18.60
2022-09-14T18:34:13.820Z,19.17
2022-09-14T18:38:14.940Z,14.67
2022-09-14T18:42:16.149Z,12.00
2022-09-14T18:46:18.622Z,22.83
2022-09-14T18:50:21.669Z,22.30
2022-09-14T18:54:27.580Z,25.67
2022-09-14T18:58:26.434Z,44.20
2022-09-14T19:02:27.725Z,27.98
2022-09-14T19:06:29.210Z,19.77
2022-09-14T19:10:30.983Z,11.10
2022-09-14T19:14:32.128Z,9.97
2022-09-14T19:18:34.840Z,10.43
2022-09-14T19:22:36.224Z,12.97
2022-09-14T19:26:45.063Z,11.93
2022-09-14T19:30:45.744Z,16.73
2022-09-14T19:34:47.130Z,14.80
2022-09-14T19:38:50.026Z,16.60
2022-09-14T19:42:51.594Z,18.27
2022-09-14T19:46:53.182Z,20.03
2022-09-14T19:50:59.568Z,14.37
2022-09-14T19:55:00.695Z,15.57
2022-09-14T19:59:03.872Z,16.57
2022-09-14T20:03:05.008Z,17.90
2022-09-14T20:07:07.107Z,27.70
2022-09-14T20:11:19.813Z,16.80
2022-09-14T20:19:24.936Z,18.30
2022-09-14T20:23:26.093Z,13.03
2022-09-14T20:27:27.139Z,22.60
2022-09-14T20:31:29.713Z,11.73
2022-09-14T20:35:30.751Z,11.13
2022-09-14T20:39:33.736Z,8.90
2022-09-14T20:43:37.645Z,5.37
2022-09-14T20:47:38.918Z,2.90
2022-09-14T20:51:42.042Z,4.60
2022-09-14T20:55:43.531Z,4.00
2022-09-14T20:59:44.432Z,4.27
2022-09-14T21:03:47.641Z,4.53
2022-09-14T21:07:56.040Z,5.23
2022-09-14T21:11:54.599Z,4.13
2022-09-14T21:15:55.542Z,3.57
2022-09-14T21:19:56.686Z,4.17
2022-09-14T21:23:59.347Z,3.90
2022-09-14T21:28:01.168Z,4.07
2022-09-14T21:32:06.846Z,2.93
2022-09-14T21:36:08.913Z,3.40
2022-09-14T21:40:10.777Z,3.30
2022-09-14T21:44:13.097Z,2.87
2022-09-14T21:48:14.086Z,2.93
2022-09-14T21:52:15.361Z,3.70
2022-09-14T21:56:18.718Z,2.90
2022-09-14T22:00:20.166Z,3.30
2022-09-14T22:04:24.260Z,3.93
2022-09-14T22:08:27.469Z,4.83
2022-09-14T22:12:30.424Z,6.33
2022-09-14T22:16:33.537Z,9.70
2022-09-14T22:20:34.981Z,8.27
2022-09-14T22:24:38.557Z,11.57
2022-09-14T22:28:40.352Z,11.13
2022-09-14T22:32:41.310Z,14.40
2022-09-14T22:36:43.404Z,13.33
2022-09-14T22:40:44.366Z,35.27
2022-09-14T22:44:45.433Z,15.10
2022-09-14T22:48:47.353Z,18.03
2022-09-14T22:52:48.323Z,15.70
2022-09-14T22:56:49.314Z,16.80
2022-09-14T23:00:51.048Z,12.67
2022-09-14T23:04:52.226Z,16.70
2022-09-14T23:08:53.289Z,20.57
2022-09-14T23:12:54.263Z,28.40
2022-09-14T23:16:55.779Z,19.13
2022-09-14T23:20:56.890Z,51.17
2022-09-14T23:24:58.001Z,45.50
2022-09-14T23:29:02.599Z,12.50
2022-09-14T23:33:03.656Z,25.27
2022-09-14T23:37:04.756Z,16.30
2022-09-14T23:41:05.613Z,30.40
2022-09-14T23:45:07.345Z,35.93
2022-09-14T23:49:10.408Z,39.97
2022-09-14T23:53:11.521Z,25.17
2022-09-14T23:57:12.489Z,24.13
